Time;durP1;ratioP1;P1;durP2;ratioP2;P2;SDS_P1;SDS_P2;PMS_P1;PMS_P2;Temp;Humidity;BMP_temperature;BMP_pressure;BME280_temperature;BME280_humidity;BME280_pressure;Samples;Min_cycle;Max_cycle;Signal;HPM_P1;HPM_P2
2022/02/14 00:02:14;;;;;;;;;;;7.50;99.90;;;;;;4982554;28;19960;-74
2022/02/14 00:04:41;;;;;;;;;;;7.50;99.90;;;;;;4987031;28;20361;-74
2022/02/14 00:07:07;;;;;;;;;;;7.40;99.90;;;;;;4987792;28;20008;-74
2022/02/14 00:09:33;;;;;;;;;;;7.50;99.90;;;;;;5005940;23;20024;-72
2022/02/14 00:12:00;;;;;;;;;;;7.50;99.90;;;;;;4984108;28;20021;-72
2022/02/14 00:14:27;;;;;;;;;;;7.40;99.90;;;;;;4983405;28;19914;-72
2022/02/14 00:16:54;;;;;;;;;;;7.40;99.90;;;;;;4984408;28;19933;-72
2022/02/14 00:19:20;;;;;;;;;;;7.40;99.90;;;;;;4982216;28;20506;-72
2022/02/14 00:21:45;;;;;;;;;;;7.40;99.90;;;;;;4980710;28;19957;-72
2022/02/14 00:24:11;;;;;;;;;;;7.50;99.90;;;;;;4981228;28;19918;-72
2022/02/14 00:26:37;;;;;;;;;;;7.40;99.90;;;;;;4981129;28;19914;-72
2022/02/14 00:29:03;;;;;;;;;;;7.40;99.90;;;;;;4979231;28;20326;-72
2022/02/14 00:31:29;;;;;;;;;;;7.40;99.90;;;;;;4979359;28;19956;-72
2022/02/14 00:33:55;;;;;;;;;;;7.40;99.90;;;;;;4980375;28;19918;-71
2022/02/14 00:36:20;;;;;;;;;;;7.40;99.90;;;;;;4980759;28;20124;-70
2022/02/14 00:38:46;;;;;;;;;;;7.40;99.90;;;;;;4982061;28;20394;-70
2022/02/14 00:41:12;;;;;;;;;;;7.40;99.90;;;;;;4982474;28;20335;-72
2022/02/14 00:43:37;;;;;;;;;;;7.40;99.90;;;;;;4979414;28;20401;-70
2022/02/14 00:46:03;;;;;;;;;;;7.40;99.90;;;;;;4982012;28;20449;-70
2022/02/14 00:48:29;;;;;;;;;;;7.40;99.90;;;;;;4978936;28;20371;-71
2022/02/14 00:50:54;;;;;;;;;;;7.40;99.90;;;;;;4978377;28;20259;-71
2022/02/14 00:53:20;;;;;;;;;;;7.40;99.90;;;;;;4979055;28;19913;-71
2022/02/14 00:55:47;;;;;;;;;;;7.50;99.90;;;;;;4980964;28;20364;-71
2022/02/14 00:58:14;;;;;;;;;;;7.40;99.90;;;;;;4978976;28;19918;-71
2022/02/14 01:00:40;;;;;;;;;;;7.40;99.90;;;;;;4978332;28;19914;-71
2022/02/14 01:03:06;;;;;;;;;;;7.40;99.90;;;;;;4980120;28;20364;-71
2022/02/14 01:05:32;;;;;;;;;;;7.50;99.90;;;;;;4980274;28;19925;-71
2022/02/14 01:07:57;;;;;;;;;;;7.50;99.90;;;;;;4978438;28;19913;-71
2022/02/14 01:10:23;;;;;;;;;;;7.50;99.90;;;;;;4979018;28;20000;-71
2022/02/14 01:12:49;;;;;;;;;;;7.50;99.90;;;;;;4979114;28;19914;-71
2022/02/14 01:15:14;;;;;;;;;;;7.50;99.90;;;;;;4978782;28;20418;-71
2022/02/14 01:17:40;;;;;;;;;;;7.50;99.90;;;;;;4980435;28;19952;-71
2022/02/14 01:20:07;;;;;;;;;;;7.50;99.90;;;;;;4979163;28;19918;-71
2022/02/14 01:22:34;;;;;;;;;;;7.40;99.90;;;;;;4978728;28;19909;-71
2022/02/14 01:24:59;;;;;;;;;;;7.40;99.90;;;;;;4978800;28;20260;-71
2022/02/14 01:27:25;;;;;;;;;;;7.40;99.90;;;;;;4980235;28;19921;-71
2022/02/14 01:29:51;;;;;;;;;;;7.40;99.90;;;;;;4979302;28;21003;-72
2022/02/14 01:32:22;;;;;;;;;;;7.30;99.90;;;;;;4975719;28;19917;-71
2022/02/14 01:34:48;;;;;;;;;;;7.40;99.90;;;;;;4979171;28;20051;-71
2022/02/14 01:37:14;;;;;;;;;;;7.40;99.90;;;;;;4982736;28;20291;-72
2022/02/14 01:39:41;;;;;;;;;;;7.40;99.90;;;;;;4979507;28;19943;-71
2022/02/14 01:42:07;;;;;;;;;;;7.30;99.90;;;;;;4979294;28;19924;-71
2022/02/14 01:44:40;;;;;;;;;;;7.30;99.90;;;;;;4980246;28;20386;-72
2022/02/14 01:47:25;;;;;;;;;;;7.30;99.90;;;;;;4980091;28;19929;-71
2022/02/14 01:49:52;;;;;;;;;;;7.30;99.90;;;;;;4979901;28;20392;-71
2022/02/14 01:52:18;;;;;;;;;;;7.30;99.90;;;;;;4977362;28;19955;-71
2022/02/14 01:54:45;;;;;;;;;;;7.30;99.90;;;;;;4981360;28;20007;-71
2022/02/14 01:57:11;;;;;;;;;;;7.30;99.90;;;;;;4979521;28;20029;-72
2022/02/14 01:59:38;;;;;;;;;;;7.40;99.90;;;;;;4981657;28;19920;-72
2022/02/14 02:02:05;;;;;;;;;;;7.40;99.90;;;;;;4979695;28;19914;-72
2022/02/14 02:04:30;;;;;;;;;;;7.40;99.90;;;;;;4979560;28;19957;-72
2022/02/14 02:06:56;;;;;;;;;;;7.40;99.90;;;;;;4979454;28;20006;-71
2022/02/14 02:09:25;;;;;;;;;;;7.50;99.90;;;;;;4978089;28;19953;-72
2022/02/14 02:14:35;;;;;;;;;;;7.50;99.90;;;;;;4979891;28;19988;-72
2022/02/14 02:17:00;;;;;;;;;;;7.50;99.90;;;;;;4979830;28;20468;-72
2022/02/14 02:19:26;;;;;;;;;;;7.50;99.90;;;;;;4979416;28;19925;-71
2022/02/14 02:21:52;;;;;;;;;;;7.50;99.90;;;;;;4980821;28;19910;-71
2022/02/14 02:24:19;;;;;;;;;;;7.50;99.90;;;;;;4980345;28;19937;-71
2022/02/14 02:26:45;;;;;;;;;;;7.50;99.90;;;;;;4978234;28;19956;-71
2022/02/14 02:29:11;;;;;;;;;;;7.50;99.90;;;;;;4978837;28;19917;-72
2022/02/14 02:31:37;;;;;;;;;;;7.50;99.90;;;;;;4979443;28;20558;-71
2022/02/14 02:34:04;;;;;;;;;;;7.40;99.90;;;;;;4976304;28;19913;-72
2022/02/14 02:36:30;;;;;;;;;;;7.40;99.90;;;;;;4978220;28;19921;-72
2022/02/14 02:38:55;;;;;;;;;;;7.50;99.90;;;;;;4979168;28;19917;-71
2022/02/14 02:41:21;;;;;;;;;;;7.40;99.90;;;;;;4979795;28;20009;-71
2022/02/14 02:43:46;;;;;;;;;;;7.40;99.90;;;;;;4977634;28;20406;-72
2022/02/14 02:46:12;;;;;;;;;;;7.40;99.90;;;;;;4960680;28;20378;-72
2022/02/14 02:48:37;;;;;;;;;;;7.30;99.90;;;;;;4978920;28;19917;-71
2022/02/14 02:51:04;;;;;;;;;;;7.30;99.90;;;;;;4977644;28;19913;-71
2022/02/14 02:53:30;;;;;;;;;;;7.30;99.90;;;;;;4976242;28;21262;-71
2022/02/14 02:55:55;;;;;;;;;;;7.30;99.90;;;;;;4982246;28;20133;-72
2022/02/14 02:58:21;;;;;;;;;;;7.20;99.90;;;;;;4980710;28;20435;-71
2022/02/14 03:00:47;;;;;;;;;;;7.20;99.90;;;;;;4978952;28;20291;-72
2022/02/14 03:03:13;;;;;;;;;;;7.20;99.90;;;;;;4984083;28;19924;-72
2022/02/14 03:05:38;;;;;;;;;;;7.20;99.90;;;;;;4983710;28;19984;-72
2022/02/14 03:08:04;;;;;;;;;;;7.20;99.90;;;;;;4965260;28;19914;-72
2022/02/14 03:10:30;;;;;;;;;;;7.30;99.90;;;;;;4982785;28;19921;-72
2022/02/14 03:12:56;;;;;;;;;;;7.20;99.90;;;;;;4982214;28;20383;-72
2022/02/14 03:15:22;;;;;;;;;;;7.20;99.90;;;;;;4982204;28;19949;-72
2022/02/14 03:17:47;;;;;;;;;;;7.20;99.90;;;;;;4981291;28;20386;-72
2022/02/14 03:20:13;;;;;;;;;;;7.20;99.90;;;;;;4982083;28;19910;-72
2022/02/14 03:22:38;;;;;;;;;;;7.20;99.90;;;;;;4979513;28;19917;-72
2022/02/14 03:25:04;;;;;;;;;;;7.20;99.90;;;;;;4983678;28;19913;-71
2022/02/14 03:27:30;;;;;;;;;;;7.20;99.90;;;;;;4983943;28;20446;-72
2022/02/14 03:29:55;;;;;;;;;;;7.20;99.90;;;;;;4983406;28;20513;-71
2022/02/14 03:32:21;;;;;;;;;;;7.20;99.90;;;;;;4983033;28;20008;-72
2022/02/14 03:34:46;;;;;;;;;;;7.20;99.90;;;;;;4981490;28;19944;-71
2022/02/14 03:37:12;;;;;;;;;;;7.20;99.90;;;;;;4983029;28;20008;-71
2022/02/14 03:39:37;;;;;;;;;;;7.20;99.90;;;;;;4983713;28;19920;-72
2022/02/14 03:42:03;;;;;;;;;;;7.30;99.90;;;;;;4964167;28;20319;-71
2022/02/14 03:44:29;;;;;;;;;;;7.40;99.90;;;;;;4980626;28;20024;-71
2022/02/14 03:46:54;;;;;;;;;;;7.40;99.90;;;;;;4980145;28;20110;-71
2022/02/14 03:49:20;;;;;;;;;;;7.50;99.90;;;;;;4980699;28;19918;-71
2022/02/14 03:51:46;;;;;;;;;;;7.50;99.90;;;;;;4979758;28;19942;-72
2022/02/14 03:54:11;;;;;;;;;;;7.60;99.90;;;;;;4981633;28;19913;-71
2022/02/14 03:56:37;;;;;;;;;;;7.60;99.90;;;;;;4979340;28;19960;-72
2022/02/14 03:59:03;;;;;;;;;;;7.60;99.90;;;;;;4981706;28;20340;-72
2022/02/14 04:01:28;;;;;;;;;;;7.70;99.90;;;;;;4980034;28;20237;-72
2022/02/14 04:03:54;;;;;;;;;;;7.70;99.90;;;;;;4983570;28;19909;-72
2022/02/14 04:06:20;;;;;;;;;;;7.80;99.90;;;;;;4982972;28;20576;-72
2022/02/14 04:08:45;;;;;;;;;;;7.80;99.90;;;;;;4982280;28;20004;-71
2022/02/14 04:11:11;;;;;;;;;;;7.80;99.90;;;;;;4979504;28;19918;-72
2022/02/14 04:13:37;;;;;;;;;;;7.80;99.90;;;;;;4982804;28;19910;-71
2022/02/14 04:16:02;;;;;;;;;;;7.80;99.90;;;;;;4980062;28;19998;-72
2022/02/14 04:18:29;;;;;;;;;;;7.80;99.90;;;;;;4983050;28;19917;-71
2022/02/14 04:20:54;;;;;;;;;;;7.80;99.90;;;;;;4979752;28;19910;-72
2022/02/14 04:23:20;;;;;;;;;;;7.90;99.90;;;;;;4982417;28;19910;-72
2022/02/14 04:25:46;;;;;;;;;;;7.90;99.90;;;;;;4982013;28;20284;-72
2022/02/14 04:28:11;;;;;;;;;;;7.90;99.90;;;;;;4978017;28;19913;-71
2022/02/14 04:30:37;;;;;;;;;;;7.90;99.90;;;;;;4982896;28;19913;-72
2022/02/14 04:33:03;;;;;;;;;;;7.90;99.90;;;;;;4979952;28;19910;-72
2022/02/14 04:35:29;;;;;;;;;;;7.90;99.90;;;;;;4979407;28;20004;-72
2022/02/14 04:37:59;;;;;;;;;;;7.80;99.90;;;;;;4981713;28;19909;-72
2022/02/14 04:40:27;;;;;;;;;;;7.80;99.90;;;;;;4982226;28;19918;-72
2022/02/14 04:42:53;;;;;;;;;;;7.80;99.90;;;;;;4979911;28;20418;-72
2022/02/14 04:45:19;;;;;;;;;;;7.70;99.90;;;;;;4980809;28;19913;-72
2022/02/14 04:47:45;;;;;;;;;;;7.60;99.90;;;;;;4982079;28;20370;-72
2022/02/14 04:50:10;;;;;;;;;;;7.60;99.90;;;;;;4978773;28;19910;-72
2022/02/14 04:52:36;;;;;;;;;;;7.60;99.90;;;;;;4980411;28;19909;-72
2022/02/14 04:55:01;;;;;;;;;;;7.60;99.90;;;;;;4979877;28;19922;-72
2022/02/14 04:57:27;;;;;;;;;;;7.60;99.90;;;;;;4980588;28;20228;-72
2022/02/14 04:59:52;;;;;;;;;;;7.50;99.90;;;;;;4978069;28;20292;-70
2022/02/14 05:02:18;;;;;;;;;;;7.50;99.90;;;;;;4980011;28;20458;-71
2022/02/14 05:04:43;;;;;;;;;;;7.50;99.90;;;;;;4976924;28;19945;-71
2022/02/14 05:07:09;;;;;;;;;;;7.70;99.90;;;;;;4980420;28;19921;-71
2022/02/14 05:09:35;;;;;;;;;;;7.60;99.90;;;;;;4979337;28;19918;-72
2022/02/14 05:12:00;;;;;;;;;;;7.60;99.90;;;;;;4980787;28;20478;-72
2022/02/14 05:14:26;;;;;;;;;;;7.60;99.90;;;;;;4980620;28;19914;-71
2022/02/14 05:16:52;;;;;;;;;;;7.60;99.90;;;;;;4980438;28;19918;-71
2022/02/14 05:19:17;;;;;;;;;;;7.60;99.90;;;;;;4979475;28;19910;-72
2022/02/14 05:21:43;;;;;;;;;;;7.60;99.90;;;;;;4978905;28;19917;-72
2022/02/14 05:24:08;;;;;;;;;;;7.60;99.90;;;;;;4976287;28;19914;-72
2022/02/14 05:26:34;;;;;;;;;;;7.60;99.90;;;;;;4980796;28;19906;-72
2022/02/14 05:29:00;;;;;;;;;;;7.60;99.90;;;;;;4976750;28;19914;-72
2022/02/14 05:31:26;;;;;;;;;;;7.60;99.90;;;;;;4978332;28;19906;-72
2022/02/14 05:33:52;;;;;;;;;;;7.60;99.90;;;;;;4978803;28;20372;-72
2022/02/14 05:36:18;;;;;;;;;;;7.60;99.90;;;;;;4977799;28;19918;-72
2022/02/14 05:38:44;;;;;;;;;;;7.60;99.90;;;;;;4978938;28;19910;-72
2022/02/14 05:41:10;;;;;;;;;;;7.70;99.90;;;;;;4978693;28;19916;-72
2022/02/14 05:43:36;;;;;;;;;;;7.70;99.90;;;;;;4979949;28;20280;-72
2022/02/14 05:46:01;;;;;;;;;;;7.70;99.90;;;;;;4977834;28;19914;-71
2022/02/14 05:48:27;;;;;;;;;;;7.80;99.90;;;;;;4979137;28;19920;-72
2022/02/14 05:50:53;;;;;;;;;;;7.80;99.90;;;;;;4978820;28;19948;-72
2022/02/14 05:53:19;;;;;;;;;;;7.80;99.90;;;;;;4977289;28;19914;-72
2022/02/14 05:55:44;;;;;;;;;;;7.80;99.90;;;;;;4977268;28;19918;-72
2022/02/14 05:58:10;;;;;;;;;;;7.80;99.90;;;;;;4975117;28;19939;-72
2022/02/14 06:00:36;;;;;;;;;;;7.80;99.90;;;;;;4976532;28;20402;-72
2022/02/14 06:03:01;;;;;;;;;;;7.80;99.90;;;;;;4978283;28;19918;-72
2022/02/14 06:05:27;;;;;;;;;;;7.80;99.90;;;;;;4962971;28;19949;-72
2022/02/14 06:07:52;;;;;;;;;;;7.80;99.90;;;;;;4977121;28;19914;-70
2022/02/14 06:10:18;;;;;;;;;;;7.80;99.90;;;;;;4978675;28;19945;-73
2022/02/14 06:12:43;;;;;;;;;;;7.80;99.90;;;;;;4977463;28;19957;-72
2022/02/14 06:15:09;;;;;;;;;;;7.80;99.90;;;;;;4977605;28;19913;-71
2022/02/14 06:17:35;;;;;;;;;;;7.80;99.90;;;;;;4979884;28;19918;-71
2022/02/14 06:20:01;;;;;;;;;;;7.80;99.90;;;;;;4979454;28;19918;-71
2022/02/14 06:22:26;;;;;;;;;;;7.80;99.90;;;;;;4979947;28;20388;-71
2022/02/14 06:24:52;;;;;;;;;;;7.80;99.90;;;;;;4980569;28;20012;-72
2022/02/14 06:27:17;;;;;;;;;;;7.80;99.90;;;;;;4979061;28;19910;-72
2022/02/14 06:29:43;;;;;;;;;;;7.90;99.90;;;;;;4979729;28;20487;-72
2022/02/14 06:32:08;;;;;;;;;;;7.90;99.90;;;;;;4977442;28;19918;-72
2022/02/14 06:34:34;;;;;;;;;;;7.90;99.90;;;;;;4978832;28;19943;-71
2022/02/14 06:36:59;;;;;;;;;;;8.00;99.90;;;;;;4978366;28;20295;-74
2022/02/14 06:39:25;;;;;;;;;;;8.10;99.90;;;;;;4975347;28;19969;-72
2022/02/14 06:41:51;;;;;;;;;;;8.10;99.90;;;;;;4978004;28;19918;-72
2022/02/14 06:44:16;;;;;;;;;;;8.20;99.90;;;;;;4978036;28;20227;-72
2022/02/14 06:46:42;;;;;;;;;;;8.20;99.90;;;;;;4977955;28;19941;-71
2022/02/14 06:49:07;;;;;;;;;;;8.30;99.90;;;;;;4979522;28;19941;-72
2022/02/14 06:51:35;;;;;;;;;;;8.30;99.90;;;;;;4977440;28;19914;-72
2022/02/14 06:54:01;;;;;;;;;;;8.40;99.90;;;;;;4980498;28;19956;-73
2022/02/14 06:56:27;;;;;;;;;;;8.40;99.90;;;;;;4975659;28;20012;-73
2022/02/14 06:58:52;;;;;;;;;;;8.40;99.90;;;;;;4975091;28;19979;-73
2022/02/14 07:01:18;;;;;;;;;;;8.40;99.90;;;;;;4978440;28;19924;-73
2022/02/14 07:03:44;;;;;;;;;;;8.50;99.60;;;;;;4980496;28;20411;-72
2022/02/14 07:06:09;;;;;;;;;;;8.50;99.40;;;;;;4978779;28;19910;-72
2022/02/14 07:08:35;;;;;;;;;;;8.60;99.00;;;;;;4979949;28;19916;-73
2022/02/14 07:11:01;;;;;;;;;;;8.60;98.70;;;;;;4975846;28;20445;-73
2022/02/14 07:13:27;;;;;;;;;;;8.60;98.70;;;;;;4977184;28;19913;-73
2022/02/14 07:15:53;;;;;;;;;;;8.60;98.50;;;;;;4975151;28;19992;-74
2022/02/14 07:18:18;;;;;;;;;;;8.70;98.20;;;;;;4978464;28;20405;-77
2022/02/14 07:20:44;;;;;;;;;;;8.60;98.70;;;;;;4978095;28;20008;-73
2022/02/14 07:23:10;;;;;;;;;;;8.60;99.00;;;;;;4977200;28;20276;-73
2022/02/14 07:25:35;;;;;;;;;;;8.60;98.50;;;;;;4978690;28;20013;-73
2022/02/14 07:28:01;;;;;;;;;;;8.70;98.40;;;;;;4977189;28;20380;-73
2022/02/14 07:30:26;;;;;;;;;;;8.70;97.60;;;;;;4979190;28;19914;-73
2022/02/14 07:32:53;;;;;;;;;;;8.70;97.50;;;;;;4978635;28;19953;-73
2022/02/14 07:35:18;;;;;;;;;;;8.80;97.40;;;;;;4978937;28;19987;-72
2022/02/14 07:37:44;;;;;;;;;;;8.80;97.50;;;;;;4977141;28;19913;-72
2022/02/14 07:40:10;;;;;;;;;;;8.80;97.70;;;;;;4978515;28;20052;-73
2022/02/14 07:42:36;;;;;;;;;;;8.80;97.30;;;;;;4980750;28;20020;-73
2022/02/14 07:45:02;;;;;;;;;;;8.80;97.50;;;;;;4980547;28;20012;-73
2022/02/14 07:47:28;;;;;;;;;;;8.80;97.70;;;;;;4982197;28;20005;-71
2022/02/14 07:49:53;;;;;;;;;;;8.80;97.80;;;;;;4981066;28;19925;-72
2022/02/14 07:52:22;;;;;;;;;;;8.80;97.70;;;;;;4986687;28;19989;-72
2022/02/14 07:54:49;;;;;;;;;;;8.80;97.90;;;;;;4983247;28;19960;-72
2022/02/14 07:57:15;;;;;;;;;;;8.90;97.60;;;;;;4969687;28;19917;-72
2022/02/14 07:59:41;;;;;;;;;;;9.00;97.40;;;;;;4986619;28;21251;-72
2022/02/14 08:02:07;;;;;;;;;;;9.00;97.90;;;;;;4981862;28;19953;-72
2022/02/14 08:04:32;;;;;;;;;;;9.00;97.90;;;;;;4980319;28;19960;-72
2022/02/14 08:06:58;;;;;;;;;;;9.10;97.70;;;;;;4984856;28;19913;-72
2022/02/14 08:09:27;;;;;;;;;;;9.10;97.30;;;;;;4965427;28;19921;-72
2022/02/14 08:11:52;;;;;;;;;;;9.20;97.20;;;;;;4980466;28;19922;-71
2022/02/14 08:14:18;;;;;;;;;;;9.30;97.20;;;;;;4978605;28;19920;-72
2022/02/14 08:16:53;;;;;;;;;;;9.50;96.50;;;;;;4964393;28;20029;-72
2022/02/14 08:19:22;;;;;;;;;;;9.60;95.50;;;;;;4979422;28;19925;-72
2022/02/14 08:21:48;;;;;;;;;;;9.70;95.00;;;;;;4979327;28;19914;-72
2022/02/14 08:24:13;;;;;;;;;;;9.70;94.70;;;;;;4982722;28;19910;-73
2022/02/14 08:26:39;;;;;;;;;;;9.80;94.50;;;;;;4978124;28;19914;-72
2022/02/14 08:29:05;;;;;;;;;;;9.80;94.60;;;;;;4981263;28;19913;-72
2022/02/14 08:31:31;;;;;;;;;;;9.80;94.40;;;;;;4980977;28;19967;-76
2022/02/14 08:33:59;;;;;;;;;;;9.80;94.10;;;;;;4984462;28;20380;-73
2022/02/14 08:36:25;;;;;;;;;;;9.80;95.00;;;;;;4982923;28;19928;-72
2022/02/14 08:38:52;;;;;;;;;;;9.80;94.30;;;;;;4986980;28;19916;-73
2022/02/14 08:41:18;;;;;;;;;;;9.80;94.80;;;;;;4982122;28;19921;-73
2022/02/14 08:43:43;;;;;;;;;;;9.80;95.00;;;;;;4985285;28;19972;-73
2022/02/14 08:46:10;;;;;;;;;;;9.70;95.20;;;;;;4985405;28;19909;-73
2022/02/14 08:48:35;;;;;;;;;;;9.80;95.50;;;;;;4985528;28;19914;-73
2022/02/14 08:51:04;;;;;;;;;;;9.80;95.30;;;;;;4983379;28;20465;-73
2022/02/14 08:53:37;;;;;;;;;;;10.00;95.00;;;;;;4984025;28;20014;-72
2022/02/14 08:56:06;;;;;;;;;;;10.00;94.90;;;;;;4985378;28;19968;-73
2022/02/14 08:58:32;;;;;;;;;;;10.00;94.90;;;;;;4985282;28;20021;-72
2022/02/14 09:00:58;;;;;;;;;;;10.00;95.30;;;;;;4982984;28;19916;-72
2022/02/14 09:03:24;;;;;;;;;;;10.00;95.10;;;;;;4981051;28;19921;-72
2022/02/14 09:05:49;;;;;;;;;;;10.00;95.10;;;;;;4983330;28;19914;-72
2022/02/14 09:08:15;;;;;;;;;;;10.00;95.20;;;;;;4993361;28;19910;-72
2022/02/14 09:10:41;;;;;;;;;;;10.00;95.20;;;;;;4976722;28;20518;-73
2022/02/14 09:13:07;;;;;;;;;;;10.10;95.10;;;;;;4985563;28;19988;-72
2022/02/14 09:15:33;;;;;;;;;;;10.10;95.10;;;;;;4984746;28;20327;-73
2022/02/14 09:17:58;;;;;;;;;;;10.10;95.70;;;;;;4983680;28;19945;-73
2022/02/14 09:20:24;;;;;;;;;;;10.30;95.10;;;;;;4986528;28;19917;-73
2022/02/14 09:22:50;;;;;;;;;;;10.40;95.00;;;;;;4985667;28;19918;-72
2022/02/14 09:25:16;;;;;;;;;;;10.40;94.60;;;;;;4984848;28;19992;-72
2022/02/14 09:27:42;;;;;;;;;;;10.50;94.80;;;;;;4981112;28;22005;-72
2022/02/14 09:30:09;;;;;;;;;;;10.50;94.50;;;;;;4980389;28;19909;-73
2022/02/14 09:32:34;;;;;;;;;;;10.50;94.30;;;;;;4984206;28;19913;-72
2022/02/14 09:35:00;;;;;;;;;;;10.50;94.50;;;;;;5002276;28;19921;-72
2022/02/14 09:37:26;;;;;;;;;;;10.60;94.30;;;;;;4987037;28;20000;-73
2022/02/14 09:39:52;;;;;;;;;;;10.70;93.90;;;;;;4981632;28;20643;-73
2022/02/14 09:42:18;;;;;;;;;;;10.60;94.50;;;;;;4983169;28;19913;-73
2022/02/14 09:44:44;;;;;;;;;;;10.70;94.40;;;;;;4985528;28;20058;-73
2022/02/14 09:47:10;;;;;;;;;;;10.80;94.50;;;;;;4986525;28;20368;-73
2022/02/14 09:49:37;;;;;;;;;;;10.80;94.40;;;;;;4982088;28;19945;-73
2022/02/14 09:52:03;;;;;;;;;;;10.80;94.50;;;;;;4983075;28;19914;-73
2022/02/14 09:54:29;;;;;;;;;;;11.00;94.40;;;;;;4978044;28;19910;-72
2022/02/14 09:56:54;;;;;;;;;;;11.00;94.30;;;;;;4984190;28;19913;-73
2022/02/14 09:59:21;;;;;;;;;;;11.10;93.80;;;;;;4989803;28;20272;-74
2022/02/14 10:01:47;;;;;;;;;;;11.10;93.50;;;;;;4981507;28;20394;-72
2022/02/14 10:04:12;;;;;;;;;;;11.00;94.30;;;;;;4985986;28;19909;-74
2022/02/14 10:06:43;;;;;;;;;;;10.90;94.20;;;;;;4986095;28;19949;-73
2022/02/14 10:09:15;;;;;;;;;;;10.90;94.30;;;;;;4984661;28;19910;-73
2022/02/14 10:12:05;;;;;;;;;;;11.00;94.40;;;;;;4988555;28;19918;-73
2022/02/14 10:14:32;;;;;;;;;;;11.00;93.90;;;;;;4988218;28;19960;-73
2022/02/14 10:17:00;;;;;;;;;;;10.90;94.30;;;;;;4983507;28;19914;-73
2022/02/14 10:19:26;;;;;;;;;;;10.90;94.40;;;;;;4988000;28;19917;-73
2022/02/14 10:21:52;;;;;;;;;;;11.00;94.50;;;;;;4984654;28;19913;-73
2022/02/14 10:24:18;;;;;;;;;;;10.90;94.80;;;;;;4985084;28;19906;-72
2022/02/14 10:26:47;;;;;;;;;;;11.00;94.90;;;;;;4983823;28;19952;-72
2022/02/14 10:29:20;;;;;;;;;;;10.90;95.60;;;;;;4990057;28;19949;-73
2022/02/14 10:31:47;;;;;;;;;;;11.00;95.50;;;;;;4983186;28;19914;-73
2022/02/14 10:34:13;;;;;;;;;;;11.00;95.70;;;;;;4983378;28;19917;-73
2022/02/14 10:36:43;;;;;;;;;;;11.10;95.90;;;;;;4986228;28;19910;-73
2022/02/14 10:39:09;;;;;;;;;;;11.20;95.70;;;;;;4991565;28;19929;-73
2022/02/14 10:41:35;;;;;;;;;;;11.20;95.90;;;;;;4983620;28;19949;-73
2022/02/14 10:47:08;;;;;;;;;;;11.40;95.70;;;;;;4986989;28;19910;-73
2022/02/14 10:49:34;;;;;;;;;;;11.50;95.30;;;;;;4983070;28;19932;-74
2022/02/14 10:52:01;;;;;;;;;;;11.60;95.40;;;;;;4985559;28;20028;-72
2022/02/14 10:54:27;;;;;;;;;;;11.70;95.10;;;;;;4980923;28;19917;-73
2022/02/14 10:56:52;;;;;;;;;;;11.80;94.80;;;;;;4983504;28;20472;-74
2022/02/14 10:59:19;;;;;;;;;;;12.00;94.20;;;;;;4986309;28;19917;-74
2022/02/14 11:01:44;;;;;;;;;;;12.50;92.70;;;;;;4990232;28;19913;-73
2022/02/14 11:04:10;;;;;;;;;;;13.40;90.00;;;;;;4983545;28;19910;-73
2022/02/14 11:06:39;;;;;;;;;;;14.50;81.50;;;;;;4990948;28;19937;-74
2022/02/14 11:09:05;;;;;;;;;;;15.90;74.60;;;;;;4979719;28;19937;-74
2022/02/14 11:11:33;;;;;;;;;;;16.70;68.60;;;;;;4985848;28;19918;-75
2022/02/14 11:13:59;;;;;;;;;;;17.30;63.50;;;;;;4988480;28;20498;-74
2022/02/14 11:16:26;;;;;;;;;;;17.50;62.40;;;;;;4984503;28;20004;-74
2022/02/14 11:18:52;;;;;;;;;;;17.00;62.30;;;;;;4987435;28;20296;-73
2022/02/14 11:21:18;;;;;;;;;;;16.10;64.80;;;;;;4985480;28;19910;-73
2022/02/14 11:23:49;;;;;;;;;;;15.40;66.70;;;;;;4986826;28;19913;-72
2022/02/14 11:26:26;;;;;;;;;;;14.90;69.30;;;;;;4984016;28;19920;-73
2022/02/14 11:28:56;;;;;;;;;;;14.40;71.50;;;;;;4986307;28;19932;-73
2022/02/14 11:31:29;;;;;;;;;;;14.00;74.60;;;;;;4983072;28;20324;-73
2022/02/14 11:33:56;;;;;;;;;;;13.60;76.00;;;;;;4984159;28;19909;-73
2022/02/14 11:36:23;;;;;;;;;;;13.40;78.40;;;;;;4986424;28;20307;-73
2022/02/14 11:38:51;;;;;;;;;;;13.20;80.10;;;;;;4980926;28;20410;-80
2022/02/14 11:41:29;;;;;;;;;;;13.00;82.20;;;;;;4980738;28;19909;-74
2022/02/14 11:44:15;;;;;;;;;;;13.00;83.70;;;;;;4984197;28;21028;-73
2022/02/14 11:46:45;;;;;;;;;;;12.90;85.50;;;;;;4981044;28;19924;-73
2022/02/14 11:49:11;;;;;;;;;;;13.00;86.10;;;;;;4981625;28;20343;-73
2022/02/14 11:51:38;;;;;;;;;;;13.10;86.00;;;;;;4975909;28;19917;-73
2022/02/14 11:54:04;;;;;;;;;;;13.20;86.60;;;;;;4976142;28;19920;-72
2022/02/14 11:56:31;;;;;;;;;;;13.30;85.80;;;;;;4978821;28;19928;-72
2022/02/14 11:59:00;;;;;;;;;;;13.20;86.20;;;;;;4979101;28;19980;-74
2022/02/14 12:01:34;;;;;;;;;;;13.10;87.20;;;;;;4980728;28;20012;-73
2022/02/14 12:04:18;;;;;;;;;;;13.10;88.20;;;;;;4980358;28;19986;-75
2022/02/14 12:07:02;;;;;;;;;;;13.10;89.50;;;;;;4977365;28;21380;-72
2022/02/14 12:09:28;;;;;;;;;;;13.10;89.30;;;;;;4979337;28;20165;-72
2022/02/14 12:11:53;;;;;;;;;;;13.10;90.30;;;;;;5002118;23;19926;-74
2022/02/14 12:14:24;;;;;;;;;;;13.10;90.00;;;;;;4963035;28;20275;-74
2022/02/14 12:22:50;;;;;;;;;;;13.00;91.00;;;;;;4981664;28;20439;-73
2022/02/14 12:25:15;;;;;;;;;;;12.90;91.30;;;;;;4961520;28;19911;-75
2022/02/14 12:27:41;;;;;;;;;;;12.90;91.70;;;;;;4981190;28;19910;-76
2022/02/14 12:30:20;;;;;;;;;;;12.70;92.20;;;;;;4981414;28;19913;-74
2022/02/14 12:33:04;;;;;;;;;;;12.70;92.50;;;;;;4980663;28;19928;-73
2022/02/14 12:35:37;;;;;;;;;;;12.80;92.60;;;;;;4982605;28;19971;-73
2022/02/14 12:38:03;;;;;;;;;;;12.70;92.70;;;;;;4977282;28;20368;-72
2022/02/14 12:40:51;;;;;;;;;;;12.70;93.10;;;;;;4983043;28;19921;-72
2022/02/14 12:43:21;;;;;;;;;;;12.70;93.40;;;;;;4971169;28;20264;-73
2022/02/14 12:45:47;;;;;;;;;;;12.70;93.50;;;;;;4961568;28;19914;-73
2022/02/14 12:48:25;;;;;;;;;;;12.70;93.90;;;;;;4972943;28;19973;-72
2022/02/14 12:50:51;;;;;;;;;;;12.70;94.30;;;;;;4962708;28;20134;-73
2022/02/14 12:53:16;;;;;;;;;;;12.70;94.40;;;;;;4962931;28;19917;-73
2022/02/14 12:55:42;;;;;;;;;;;12.70;94.50;;;;;;4986804;28;20367;-74
2022/02/14 12:58:09;;;;;;;;;;;12.60;94.80;;;;;;4971391;28;19910;-74
2022/02/14 13:00:38;;;;;;;;;;;12.70;94.80;;;;;;4976118;28;19956;-74
2022/02/14 13:03:05;;;;;;;;;;;12.60;94.90;;;;;;4968592;28;20385;-74
2022/02/14 13:05:32;;;;;;;;;;;12.50;95.40;;;;;;4983206;28;19917;-74
2022/02/14 13:08:01;;;;;;;;;;;12.50;95.50;;;;;;4982734;28;19910;-75
2022/02/14 13:10:27;;;;;;;;;;;12.50;95.80;;;;;;4983006;28;19913;-74
2022/02/14 13:13:03;;;;;;;;;;;12.50;96.30;;;;;;4981718;28;19918;-73
2022/02/14 13:15:29;;;;;;;;;;;12.40;96.50;;;;;;4977134;28;19922;-74
2022/02/14 13:17:55;;;;;;;;;;;12.50;96.50;;;;;;4983832;28;19957;-75
2022/02/14 13:20:22;;;;;;;;;;;12.60;96.40;;;;;;4962301;28;20287;-73
2022/02/14 13:22:47;;;;;;;;;;;12.50;96.30;;;;;;4988143;28;19909;-73
2022/02/14 13:25:19;;;;;;;;;;;12.50;96.50;;;;;;4965242;28;19932;-73
2022/02/14 13:27:46;;;;;;;;;;;12.40;96.80;;;;;;4990534;28;19910;-73
2022/02/14 13:30:13;;;;;;;;;;;12.40;97.20;;;;;;4990377;28;19906;-73
2022/02/14 13:32:40;;;;;;;;;;;12.30;97.60;;;;;;4989110;28;19909;-73
2022/02/14 13:35:09;;;;;;;;;;;12.30;97.90;;;;;;4987295;28;19914;-73
2022/02/14 13:37:45;;;;;;;;;;;12.30;98.10;;;;;;4968540;28;19968;-72
2022/02/14 13:40:23;;;;;;;;;;;12.20;98.40;;;;;;4986712;28;19910;-73
2022/02/14 13:42:53;;;;;;;;;;;12.20;99.00;;;;;;4984367;28;19914;-74
2022/02/14 13:45:19;;;;;;;;;;;12.20;99.90;;;;;;4968817;28;19906;-73
2022/02/14 13:47:49;;;;;;;;;;;12.10;99.90;;;;;;4949445;28;19910;-73
2022/02/14 13:50:25;;;;;;;;;;;12.00;99.90;;;;;;4969024;28;19914;-71
2022/02/14 13:52:51;;;;;;;;;;;11.90;99.90;;;;;;4986637;28;19921;-73
2022/02/14 13:55:18;;;;;;;;;;;11.80;99.90;;;;;;4983608;28;19918;-75
2022/02/14 13:57:43;;;;;;;;;;;11.80;99.90;;;;;;4984087;28;19910;-71
2022/02/14 14:00:29;;;;;;;;;;;11.70;99.90;;;;;;4981435;28;20476;-72
2022/02/14 14:03:02;;;;;;;;;;;11.60;99.90;;;;;;4977575;28;19910;-73
2022/02/14 14:05:35;;;;;;;;;;;11.60;99.90;;;;;;4981180;28;19909;-72
2022/02/14 14:08:00;;;;;;;;;;;11.50;99.90;;;;;;4983097;28;20389;-73
2022/02/14 14:10:38;;;;;;;;;;;11.40;99.90;;;;;;4968974;28;19910;-73
2022/02/14 14:13:04;;;;;;;;;;;11.30;99.90;;;;;;4966396;28;19920;-73
2022/02/14 14:15:30;;;;;;;;;;;11.20;99.90;;;;;;4980621;28;19918;-71
2022/02/14 14:17:55;;;;;;;;;;;11.10;99.90;;;;;;4979073;28;19925;-72
2022/02/14 14:20:25;;;;;;;;;;;11.10;99.90;;;;;;4976698;28;20324;-73
2022/02/14 14:22:51;;;;;;;;;;;11.10;99.90;;;;;;4977032;28;19938;-73
2022/02/14 14:25:17;;;;;;;;;;;11.00;99.90;;;;;;4977581;28;19997;-74
2022/02/14 14:27:45;;;;;;;;;;;11.00;99.90;;;;;;4944404;28;19917;-73
2022/02/14 14:30:11;;;;;;;;;;;11.00;99.90;;;;;;4965172;28;19909;-75
2022/02/14 14:32:37;;;;;;;;;;;11.00;99.90;;;;;;4973361;28;20363;-75
2022/02/14 14:35:03;;;;;;;;;;;11.00;99.90;;;;;;4962048;28;19916;-73
2022/02/14 14:37:28;;;;;;;;;;;11.00;99.90;;;;;;4962487;28;19956;-73